sensor_id;sensor_type;location;lat;lon;timestamp;temperature;humidity
77467;DHT22;66564;42.482;25.548;2024-02-23T00:01:06;7.05;70.68
77467;DHT22;66564;42.482;25.548;2024-02-23T00:03:33;6.97;70.47
77467;DHT22;66564;42.482;25.548;2024-02-23T00:06:00;7.00;70.55
77467;DHT22;66564;42.482;25.548;2024-02-23T00:08:25;6.96;70.46
77467;DHT22;66564;42.482;25.548;2024-02-23T00:10:50;6.93;70.61
77467;DHT22;66564;42.482;25.548;2024-02-23T00:13:16;6.93;70.41
77467;DHT22;66564;42.482;25.548;2024-02-23T00:15:41;6.89;70.34
77467;DHT22;66564;42.482;25.548;2024-02-23T00:18:09;6.85;70.50
77467;DHT22;66564;42.482;25.548;2024-02-23T00:20:34;6.83;70.69
77467;DHT22;66564;42.482;25.548;2024-02-23T00:23:00;6.86;70.74
77467;DHT22;66564;42.482;25.548;2024-02-23T00:25:25;6.83;71.02
77467;DHT22;66564;42.482;25.548;2024-02-23T00:27:50;6.81;71.58
77467;DHT22;66564;42.482;25.548;2024-02-23T00:30:16;6.82;72.01
77467;DHT22;66564;42.482;25.548;2024-02-23T00:32:41;6.79;71.45
77467;DHT22;66564;42.482;25.548;2024-02-23T00:35:07;6.82;71.33
77467;DHT22;66564;42.482;25.548;2024-02-23T00:37:32;6.82;71.49
77467;DHT22;66564;42.482;25.548;2024-02-23T00:40:06;6.81;71.12
77467;DHT22;66564;42.482;25.548;2024-02-23T00:42:32;6.78;71.07
77467;DHT22;66564;42.482;25.548;2024-02-23T00:44:57;6.81;71.22
77467;DHT22;66564;42.482;25.548;2024-02-23T00:47:23;6.78;71.26
77467;DHT22;66564;42.482;25.548;2024-02-23T00:49:48;6.78;71.25
77467;DHT22;66564;42.482;25.548;2024-02-23T00:52:14;6.79;71.14
77467;DHT22;66564;42.482;25.548;2024-02-23T00:54:40;6.78;71.23
77467;DHT22;66564;42.482;25.548;2024-02-23T00:57:05;6.79;71.20
77467;DHT22;66564;42.482;25.548;2024-02-23T00:59:31;6.78;71.60
77467;DHT22;66564;42.482;25.548;2024-02-23T01:01:56;6.75;71.62
77467;DHT22;66564;42.482;25.548;2024-02-23T01:04:22;6.73;71.59
77467;DHT22;66564;42.482;25.548;2024-02-23T01:06:47;6.75;71.47
77467;DHT22;66564;42.482;25.548;2024-02-23T01:09:13;6.78;71.41
77467;DHT22;66564;42.482;25.548;2024-02-23T01:11:41;6.72;71.20
77467;DHT22;66564;42.482;25.548;2024-02-23T01:14:06;6.67;71.60
77467;DHT22;66564;42.482;25.548;2024-02-23T01:16:32;6.72;71.92
77467;DHT22;66564;42.482;25.548;2024-02-23T01:18:57;6.65;71.66
77467;DHT22;66564;42.482;25.548;2024-02-23T01:21:23;6.64;72.09
77467;DHT22;66564;42.482;25.548;2024-02-23T01:23:49;6.64;72.29
77467;DHT22;66564;42.482;25.548;2024-02-23T01:26:14;6.59;71.94
77467;DHT22;66564;42.482;25.548;2024-02-23T01:28:40;6.58;71.62
77467;DHT22;66564;42.482;25.548;2024-02-23T01:31:08;6.53;71.59
77467;DHT22;66564;42.482;25.548;2024-02-23T01:33:36;6.46;72.03
77467;DHT22;66564;42.482;25.548;2024-02-23T01:36:06;6.46;71.89
77467;DHT22;66564;42.482;25.548;2024-02-23T01:38:32;6.48;71.49
77467;DHT22;66564;42.482;25.548;2024-02-23T01:40:58;6.44;71.40
77467;DHT22;66564;42.482;25.548;2024-02-23T01:43:24;6.45;71.60
77467;DHT22;66564;42.482;25.548;2024-02-23T01:45:49;6.44;71.75
77467;DHT22;66564;42.482;25.548;2024-02-23T01:48:16;6.45;71.34
77467;DHT22;66564;42.482;25.548;2024-02-23T01:50:42;6.48;71.45
77467;DHT22;66564;42.482;25.548;2024-02-23T01:53:09;6.42;72.32
77467;DHT22;66564;42.482;25.548;2024-02-23T01:55:36;6.41;72.78
77467;DHT22;66564;42.482;25.548;2024-02-23T01:58:04;6.42;73.08
77467;DHT22;66564;42.482;25.548;2024-02-23T02:00:29;6.41;73.01
77467;DHT22;66564;42.482;25.548;2024-02-23T02:02:55;6.37;73.09
77467;DHT22;66564;42.482;25.548;2024-02-23T02:05:20;6.41;73.33
77467;DHT22;66564;42.482;25.548;2024-02-23T02:07:47;6.45;73.56
77467;DHT22;66564;42.482;25.548;2024-02-23T02:10:16;6.48;73.21
77467;DHT22;66564;42.482;25.548;2024-02-23T02:12:42;6.40;72.27
77467;DHT22;66564;42.482;25.548;2024-02-23T02:15:08;6.28;72.40
77467;DHT22;66564;42.482;25.548;2024-02-23T02:17:34;6.24;72.25
77467;DHT22;66564;42.482;25.548;2024-02-23T02:20:02;6.24;72.27
77467;DHT22;66564;42.482;25.548;2024-02-23T02:22:31;6.28;72.33
77467;DHT22;66564;42.482;25.548;2024-02-23T02:24:57;6.34;72.13
77467;DHT22;66564;42.482;25.548;2024-02-23T02:27:22;6.31;72.08
77467;DHT22;66564;42.482;25.548;2024-02-23T02:29:50;6.28;72.45
77467;DHT22;66564;42.482;25.548;2024-02-23T02:32:16;6.25;72.38
77467;DHT22;66564;42.482;25.548;2024-02-23T02:34:42;6.24;72.64
77467;DHT22;66564;42.482;25.548;2024-02-23T02:37:08;6.25;73.70
77467;DHT22;66564;42.482;25.548;2024-02-23T02:39:33;6.31;73.84
77467;DHT22;66564;42.482;25.548;2024-02-23T02:41:59;6.32;73.77
77467;DHT22;66564;42.482;25.548;2024-02-23T02:44:25;6.27;73.33
77467;DHT22;66564;42.482;25.548;2024-02-23T02:46:51;6.22;72.57
77467;DHT22;66564;42.482;25.548;2024-02-23T02:49:17;6.20;71.67
77467;DHT22;66564;42.482;25.548;2024-02-23T02:51:42;6.11;71.74
77467;DHT22;66564;42.482;25.548;2024-02-23T02:54:08;6.07;71.89
77467;DHT22;66564;42.482;25.548;2024-02-23T02:56:33;6.01;72.34
77467;DHT22;66564;42.482;25.548;2024-02-23T02:58:59;5.97;72.64
77467;DHT22;66564;42.482;25.548;2024-02-23T03:01:24;5.96;73.13
77467;DHT22;66564;42.482;25.548;2024-02-23T03:03:50;5.93;72.01
77467;DHT22;66564;42.482;25.548;2024-02-23T03:06:15;5.91;71.83
77467;DHT22;66564;42.482;25.548;2024-02-23T03:08:44;5.86;72.35
77467;DHT22;66564;42.482;25.548;2024-02-23T03:11:09;5.87;72.69
77467;DHT22;66564;42.482;25.548;2024-02-23T03:13:35;5.91;72.90
77467;DHT22;66564;42.482;25.548;2024-02-23T03:16:00;5.96;73.17
77467;DHT22;66564;42.482;25.548;2024-02-23T03:18:26;6.03;73.05
77467;DHT22;66564;42.482;25.548;2024-02-23T03:20:53;5.94;73.34
77467;DHT22;66564;42.482;25.548;2024-02-23T03:23:18;5.94;73.47
77467;DHT22;66564;42.482;25.548;2024-02-23T03:25:44;5.97;74.12
77467;DHT22;66564;42.482;25.548;2024-02-23T03:28:09;6.00;74.77
77467;DHT22;66564;42.482;25.548;2024-02-23T03:30:35;6.04;74.76
77467;DHT22;66564;42.482;25.548;2024-02-23T03:33:00;6.08;74.84
77467;DHT22;66564;42.482;25.548;2024-02-23T03:35:26;6.06;74.65
77467;DHT22;66564;42.482;25.548;2024-02-23T03:37:51;6.04;74.53
77467;DHT22;66564;42.482;25.548;2024-02-23T03:40:17;6.04;74.46
77467;DHT22;66564;42.482;25.548;2024-02-23T03:42:44;6.03;74.09
77467;DHT22;66564;42.482;25.548;2024-02-23T03:45:10;6.00;73.84
77467;DHT22;66564;42.482;25.548;2024-02-23T03:47:35;5.97;73.47
77467;DHT22;66564;42.482;25.548;2024-02-23T03:50:01;6.01;73.26
77467;DHT22;66564;42.482;25.548;2024-02-23T03:52:26;5.97;73.14
77467;DHT22;66564;42.482;25.548;2024-02-23T03:54:51;5.98;73.44
77467;DHT22;66564;42.482;25.548;2024-02-23T03:57:19;5.98;74.17
77467;DHT22;66564;42.482;25.548;2024-02-23T03:59:54;5.91;74.26
77467;DHT22;66564;42.482;25.548;2024-02-23T04:02:19;5.91;74.01
77467;DHT22;66564;42.482;25.548;2024-02-23T04:04:45;5.91;74.00
77467;DHT22;66564;42.482;25.548;2024-02-23T04:07:11;5.87;73.33
77467;DHT22;66564;42.482;25.548;2024-02-23T04:09:36;5.89;73.08
77467;DHT22;66564;42.482;25.548;2024-02-23T04:12:02;5.90;73.60
77467;DHT22;66564;42.482;25.548;2024-02-23T04:14:27;5.96;73.56
77467;DHT22;66564;42.482;25.548;2024-02-23T04:16:53;5.94;73.79
77467;DHT22;66564;42.482;25.548;2024-02-23T04:19:19;5.94;73.30
77467;DHT22;66564;42.482;25.548;2024-02-23T04:21:44;5.89;72.63
77467;DHT22;66564;42.482;25.548;2024-02-23T04:24:09;5.81;72.92
77467;DHT22;66564;42.482;25.548;2024-02-23T04:26:35;5.80;73.51
77467;DHT22;66564;42.482;25.548;2024-02-23T04:29:00;5.81;73.46
77467;DHT22;66564;42.482;25.548;2024-02-23T04:31:26;5.76;73.58
77467;DHT22;66564;42.482;25.548;2024-02-23T04:33:51;5.70;72.89
77467;DHT22;66564;42.482;25.548;2024-02-23T04:36:19;5.74;72.75
77467;DHT22;66564;42.482;25.548;2024-02-23T04:38:46;5.69;73.39
77467;DHT22;66564;42.482;25.548;2024-02-23T04:41:11;5.70;73.21
77467;DHT22;66564;42.482;25.548;2024-02-23T04:43:37;5.69;73.48
77467;DHT22;66564;42.482;25.548;2024-02-23T04:46:02;5.67;73.45
77467;DHT22;66564;42.482;25.548;2024-02-23T04:48:28;5.60;72.51
77467;DHT22;66564;42.482;25.548;2024-02-23T04:50:56;5.62;73.02
77467;DHT22;66564;42.482;25.548;2024-02-23T04:53:21;5.63;73.00
77467;DHT22;66564;42.482;25.548;2024-02-23T04:55:47;5.59;72.65
77467;DHT22;66564;42.482;25.548;2024-02-23T04:58:12;5.53;73.32
77467;DHT22;66564;42.482;25.548;2024-02-23T05:00:38;5.56;73.73
77467;DHT22;66564;42.482;25.548;2024-02-23T05:03:03;5.62;73.68
77467;DHT22;66564;42.482;25.548;2024-02-23T05:05:32;5.59;73.51
77467;DHT22;66564;42.482;25.548;2024-02-23T05:07:58;5.62;73.45
77467;DHT22;66564;42.482;25.548;2024-02-23T05:10:24;5.62;73.07
77467;DHT22;66564;42.482;25.548;2024-02-23T05:12:50;5.60;72.74
77467;DHT22;66564;42.482;25.548;2024-02-23T05:15:15;5.66;72.73
77467;DHT22;66564;42.482;25.548;2024-02-23T05:17:41;5.69;72.84
77467;DHT22;66564;42.482;25.548;2024-02-23T05:20:07;5.62;73.14
77467;DHT22;66564;42.482;25.548;2024-02-23T05:22:36;5.63;73.44
77467;DHT22;66564;42.482;25.548;2024-02-23T05:25:01;5.66;73.32
77467;DHT22;66564;42.482;25.548;2024-02-23T05:27:27;5.62;73.66
77467;DHT22;66564;42.482;25.548;2024-02-23T05:29:52;5.66;73.56
77467;DHT22;66564;42.482;25.548;2024-02-23T05:32:18;5.63;73.00
77467;DHT22;66564;42.482;25.548;2024-02-23T05:34:44;5.64;73.20
77467;DHT22;66564;42.482;25.548;2024-02-23T05:37:10;5.66;73.55
77467;DHT22;66564;42.482;25.548;2024-02-23T05:39:35;5.74;74.27
77467;DHT22;66564;42.482;25.548;2024-02-23T05:42:03;5.87;74.25
77467;DHT22;66564;42.482;25.548;2024-02-23T05:44:28;6.11;74.69
77467;DHT22;66564;42.482;25.548;2024-02-23T05:46:54;6.27;74.72
77467;DHT22;66564;42.482;25.548;2024-02-23T05:49:19;6.44;74.56
77467;DHT22;66564;42.482;25.548;2024-02-23T05:51:45;6.59;74.58
77467;DHT22;66564;42.482;25.548;2024-02-23T05:54:10;6.76;74.20
77467;DHT22;66564;42.482;25.548;2024-02-23T05:56:36;6.93;73.82
77467;DHT22;66564;42.482;25.548;2024-02-23T05:59:02;7.12;73.57
77467;DHT22;66564;42.482;25.548;2024-02-23T06:01:28;7.30;73.37
77467;DHT22;66564;42.482;25.548;2024-02-23T06:03:53;7.49;73.43
77467;DHT22;66564;42.482;25.548;2024-02-23T06:06:20;7.70;72.74
77467;DHT22;66564;42.482;25.548;2024-02-23T06:08:45;7.90;72.04
77467;DHT22;66564;42.482;25.548;2024-02-23T06:11:11;8.11;71.69
77467;DHT22;66564;42.482;25.548;2024-02-23T06:13:37;8.34;71.41
77467;DHT22;66564;42.482;25.548;2024-02-23T06:16:04;8.63;70.72
77467;DHT22;66564;42.482;25.548;2024-02-23T06:18:30;8.80;69.78
77467;DHT22;66564;42.482;25.548;2024-02-23T06:20:55;9.06;68.78
77467;DHT22;66564;42.482;25.548;2024-02-23T06:23:20;9.14;68.43
77467;DHT22;66564;42.482;25.548;2024-02-23T06:25:47;9.23;68.62
77467;DHT22;66564;42.482;25.548;2024-02-23T06:28:12;9.40;67.89
77467;DHT22;66564;42.482;25.548;2024-02-23T06:30:38;9.41;67.68
77467;DHT22;66564;42.482;25.548;2024-02-23T06:33:03;9.77;66.98
77467;DHT22;66564;42.482;25.548;2024-02-23T06:35:29;9.99;66.18
77467;DHT22;66564;42.482;25.548;2024-02-23T06:37:55;10.12;65.79
77467;DHT22;66564;42.482;25.548;2024-02-23T06:40:20;10.33;65.04
77467;DHT22;66564;42.482;25.548;2024-02-23T06:42:46;10.50;64.99
77467;DHT22;66564;42.482;25.548;2024-02-23T06:45:11;10.56;63.67
77467;DHT22;66564;42.482;25.548;2024-02-23T06:47:37;10.69;64.03
77467;DHT22;66564;42.482;25.548;2024-02-23T06:50:05;10.74;64.79
77467;DHT22;66564;42.482;25.548;2024-02-23T06:52:31;10.99;64.44
77467;DHT22;66564;42.482;25.548;2024-02-23T06:54:57;11.28;63.76
77467;DHT22;66564;42.482;25.548;2024-02-23T06:57:22;11.58;62.86
77467;DHT22;66564;42.482;25.548;2024-02-23T06:59:51;11.78;61.93
77467;DHT22;66564;42.482;25.548;2024-02-23T07:02:16;11.92;61.31
77467;DHT22;66564;42.482;25.548;2024-02-23T07:04:42;12.05;60.72
77467;DHT22;66564;42.482;25.548;2024-02-23T07:07:08;12.15;60.45
77467;DHT22;66564;42.482;25.548;2024-02-23T07:09:34;12.20;60.43
77467;DHT22;66564;42.482;25.548;2024-02-23T07:11:59;12.39;60.09
77467;DHT22;66564;42.482;25.548;2024-02-23T07:14:25;12.61;59.17
77467;DHT22;66564;42.482;25.548;2024-02-23T07:16:50;12.66;58.61
77467;DHT22;66564;42.482;25.548;2024-02-23T07:19:19;12.49;58.52
77467;DHT22;66564;42.482;25.548;2024-02-23T07:21:46;12.34;58.99
77467;DHT22;66564;42.482;25.548;2024-02-23T07:24:11;12.74;58.74
77467;DHT22;66564;42.482;25.548;2024-02-23T07:26:37;12.83;58.41
77467;DHT22;66564;42.482;25.548;2024-02-23T07:29:02;13.06;59.05
77467;DHT22;66564;42.482;25.548;2024-02-23T07:31:28;13.39;58.39
77467;DHT22;66564;42.482;25.548;2024-02-23T07:33:54;13.54;57.04
77467;DHT22;66564;42.482;25.548;2024-02-23T07:36:19;13.76;56.67
77467;DHT22;66564;42.482;25.548;2024-02-23T07:38:45;13.96;54.77
77467;DHT22;66564;42.482;25.548;2024-02-23T07:41:11;14.12;54.73
77467;DHT22;66564;42.482;25.548;2024-02-23T07:43:38;13.95;55.81
77467;DHT22;66564;42.482;25.548;2024-02-23T07:46:04;14.23;54.71
77467;DHT22;66564;42.482;25.548;2024-02-23T07:48:30;14.33;54.20
77467;DHT22;66564;42.482;25.548;2024-02-23T07:50:56;14.32;53.92
77467;DHT22;66564;42.482;25.548;2024-02-23T07:53:21;14.10;54.67
77467;DHT22;66564;42.482;25.548;2024-02-23T07:55:47;14.37;54.23
77467;DHT22;66564;42.482;25.548;2024-02-23T07:58:12;14.12;55.15
77467;DHT22;66564;42.482;25.548;2024-02-23T08:00:38;13.99;54.54
77467;DHT22;66564;42.482;25.548;2024-02-23T08:03:04;14.40;54.64
77467;DHT22;66564;42.482;25.548;2024-02-23T08:05:29;14.81;51.77
77467;DHT22;66564;42.482;25.548;2024-02-23T08:07:55;15.05;50.08
77467;DHT22;66564;42.482;25.548;2024-02-23T08:10:20;15.21;48.73
77467;DHT22;66564;42.482;25.548;2024-02-23T08:12:47;15.44;48.72
77467;DHT22;66564;42.482;25.548;2024-02-23T08:15:12;15.51;46.91
77467;DHT22;66564;42.482;25.548;2024-02-23T08:17:37;15.75;46.88
77467;DHT22;66564;42.482;25.548;2024-02-23T08:20:03;15.90;45.53
77467;DHT22;66564;42.482;25.548;2024-02-23T08:22:29;15.90;46.61
77467;DHT22;66564;42.482;25.548;2024-02-23T08:24:55;16.13;46.02
77467;DHT22;66564;42.482;25.548;2024-02-23T08:27:20;16.29;45.15
77467;DHT22;66564;42.482;25.548;2024-02-23T08:29:46;16.39;43.43
77467;DHT22;66564;42.482;25.548;2024-02-23T08:32:11;16.40;43.28
77467;DHT22;66564;42.482;25.548;2024-02-23T08:34:41;16.50;43.12
77467;DHT22;66564;42.482;25.548;2024-02-23T08:37:06;16.63;43.50
77467;DHT22;66564;42.482;25.548;2024-02-23T08:39:32;16.77;43.61
77467;DHT22;66564;42.482;25.548;2024-02-23T08:41:59;16.94;43.50
77467;DHT22;66564;42.482;25.548;2024-02-23T08:44:24;17.16;42.73
77467;DHT22;66564;42.482;25.548;2024-02-23T08:46:50;17.14;41.97
77467;DHT22;66564;42.482;25.548;2024-02-23T08:49:15;17.04;42.60
77467;DHT22;66564;42.482;25.548;2024-02-23T08:51:41;17.02;42.74
77467;DHT22;66564;42.482;25.548;2024-02-23T08:54:06;17.16;42.63
77467;DHT22;66564;42.482;25.548;2024-02-23T08:56:39;17.28;42.64
77467;DHT22;66564;42.482;25.548;2024-02-23T08:59:07;17.25;42.82
77467;DHT22;66564;42.482;25.548;2024-02-23T09:01:32;17.26;41.24
77467;DHT22;66564;42.482;25.548;2024-02-23T09:03:58;17.36;41.04
77467;DHT22;66564;42.482;25.548;2024-02-23T09:06:23;17.49;40.38
77467;DHT22;66564;42.482;25.548;2024-02-23T09:08:49;17.48;40.19
77467;DHT22;66564;42.482;25.548;2024-02-23T09:11:14;17.55;40.08
77467;DHT22;66564;42.482;25.548;2024-02-23T09:13:40;17.63;42.11
77467;DHT22;66564;42.482;25.548;2024-02-23T09:16:07;17.80;40.11
77467;DHT22;66564;42.482;25.548;2024-02-23T09:18:34;17.86;39.61
77467;DHT22;66564;42.482;25.548;2024-02-23T09:21:00;18.03;39.54
77467;DHT22;66564;42.482;25.548;2024-02-23T09:23:26;18.00;37.90
77467;DHT22;66564;42.482;25.548;2024-02-23T09:25:51;17.87;37.81
77467;DHT22;66564;42.482;25.548;2024-02-23T09:28:16;17.94;38.65
77467;DHT22;66564;42.482;25.548;2024-02-23T09:30:42;17.99;38.27
77467;DHT22;66564;42.482;25.548;2024-02-23T09:33:07;18.06;37.56
77467;DHT22;66564;42.482;25.548;2024-02-23T09:35:33;18.00;40.69
77467;DHT22;66564;42.482;25.548;2024-02-23T09:37:59;18.14;39.01
77467;DHT22;66564;42.482;25.548;2024-02-23T09:40:24;18.18;38.34
77467;DHT22;66564;42.482;25.548;2024-02-23T09:42:55;18.23;36.35
77467;DHT22;66564;42.482;25.548;2024-02-23T09:45:21;18.14;35.84
77467;DHT22;66564;42.482;25.548;2024-02-23T09:47:48;18.20;35.25
77467;DHT22;66564;42.482;25.548;2024-02-23T09:50:14;18.29;35.50
77467;DHT22;66564;42.482;25.548;2024-02-23T09:52:41;18.26;38.64
77467;DHT22;66564;42.482;25.548;2024-02-23T09:55:06;18.37;35.11
77467;DHT22;66564;42.482;25.548;2024-02-23T09:57:32;18.18;34.36
77467;DHT22;66564;42.482;25.548;2024-02-23T09:59:58;18.14;35.74
77467;DHT22;66564;42.482;25.548;2024-02-23T10:02:24;18.31;34.94
77467;DHT22;66564;42.482;25.548;2024-02-23T10:04:51;18.33;34.94
77467;DHT22;66564;42.482;25.548;2024-02-23T10:07:16;18.26;34.69
77467;DHT22;66564;42.482;25.548;2024-02-23T10:09:42;18.20;36.73
77467;DHT22;66564;42.482;25.548;2024-02-23T10:12:08;18.20;36.33
77467;DHT22;66564;42.482;25.548;2024-02-23T10:14:36;18.00;34.78
77467;DHT22;66564;42.482;25.548;2024-02-23T10:17:01;17.99;36.35
77467;DHT22;66564;42.482;25.548;2024-02-23T10:19:27;17.97;36.48
77467;DHT22;66564;42.482;25.548;2024-02-23T10:21:55;18.01;36.61
77467;DHT22;66564;42.482;25.548;2024-02-23T10:24:22;17.85;35.30
77467;DHT22;66564;42.482;25.548;2024-02-23T10:26:48;17.93;34.10
77467;DHT22;66564;42.482;25.548;2024-02-23T10:29:13;18.07;35.77
77467;DHT22;66564;42.482;25.548;2024-02-23T10:31:39;18.13;35.06
77467;DHT22;66564;42.482;25.548;2024-02-23T10:34:09;17.96;34.93
77467;DHT22;66564;42.482;25.548;2024-02-23T10:36:41;17.79;35.33
77467;DHT22;66564;42.482;25.548;2024-02-23T10:39:08;17.96;37.82
77467;DHT22;66564;42.482;25.548;2024-02-23T10:41:35;17.96;37.66
77467;DHT22;66564;42.482;25.548;2024-02-23T10:44:05;17.45;38.35
77467;DHT22;66564;42.482;25.548;2024-02-23T10:46:32;17.42;39.69
77467;DHT22;66564;42.482;25.548;2024-02-23T10:48:58;17.72;38.62
77467;DHT22;66564;42.482;25.548;2024-02-23T10:51:28;18.00;37.82
77467;DHT22;66564;42.482;25.548;2024-02-23T10:53:53;18.06;38.73
77467;DHT22;66564;42.482;25.548;2024-02-23T10:56:20;18.17;37.68
77467;DHT22;66564;42.482;25.548;2024-02-23T10:58:47;18.31;36.32
77467;DHT22;66564;42.482;25.548;2024-02-23T11:01:13;18.34;37.01
77467;DHT22;66564;42.482;25.548;2024-02-23T11:03:42;18.37;36.94
77467;DHT22;66564;42.482;25.548;2024-02-23T11:06:08;18.48;36.94
77467;DHT22;66564;42.482;25.548;2024-02-23T11:08:34;18.54;37.82
77467;DHT22;66564;42.482;25.548;2024-02-23T11:11:11;18.71;36.79
77467;DHT22;66564;42.482;25.548;2024-02-23T11:13:38;18.61;37.06
77467;DHT22;66564;42.482;25.548;2024-02-23T11:16:05;18.43;38.88
77467;DHT22;66564;42.482;25.548;2024-02-23T11:18:31;18.61;36.78
77467;DHT22;66564;42.482;25.548;2024-02-23T11:21:02;18.40;38.15
77467;DHT22;66564;42.482;25.548;2024-02-23T11:26:11;18.58;36.34
77467;DHT22;66564;42.482;25.548;2024-02-23T11:28:50;18.53;36.93
77467;DHT22;66564;42.482;25.548;2024-02-23T11:31:23;18.48;37.11
77467;DHT22;66564;42.482;25.548;2024-02-23T11:33:56;18.54;37.29
77467;DHT22;66564;42.482;25.548;2024-02-23T11:36:34;18.51;37.12
77467;DHT22;66564;42.482;25.548;2024-02-23T11:39:01;18.48;37.08
77467;DHT22;66564;42.482;25.548;2024-02-23T11:41:28;18.47;36.96
77467;DHT22;66564;42.482;25.548;2024-02-23T11:43:54;18.38;37.53
77467;DHT22;66564;42.482;25.548;2024-02-23T11:46:21;18.34;37.79
77467;DHT22;66564;42.482;25.548;2024-02-23T11:48:47;18.33;36.32
77467;DHT22;66564;42.482;25.548;2024-02-23T11:51:21;18.41;35.64
77467;DHT22;66564;42.482;25.548;2024-02-23T11:53:50;18.44;36.32
77467;DHT22;66564;42.482;25.548;2024-02-23T11:56:16;18.44;36.36
77467;DHT22;66564;42.482;25.548;2024-02-23T11:58:42;18.72;35.92
77467;DHT22;66564;42.482;25.548;2024-02-23T12:01:08;18.84;38.56
77467;DHT22;66564;42.482;25.548;2024-02-23T12:03:34;19.04;35.47
77467;DHT22;66564;42.482;25.548;2024-02-23T12:06:01;18.97;35.96
77467;DHT22;66564;42.482;25.548;2024-02-23T12:08:27;18.94;34.75
77467;DHT22;66564;42.482;25.548;2024-02-23T12:10:54;18.78;36.39
77467;DHT22;66564;42.482;25.548;2024-02-23T12:13:20;18.79;36.29
77467;DHT22;66564;42.482;25.548;2024-02-23T12:15:47;18.79;36.39
77467;DHT22;66564;42.482;25.548;2024-02-23T12:18:13;18.92;35.27
77467;DHT22;66564;42.482;25.548;2024-02-23T12:20:39;18.97;34.83
77467;DHT22;66564;42.482;25.548;2024-02-23T12:23:05;18.92;36.23
77467;DHT22;66564;42.482;25.548;2024-02-23T12:25:32;19.02;35.37
77467;DHT22;66564;42.482;25.548;2024-02-23T12:27:58;19.07;35.13
77467;DHT22;66564;42.482;25.548;2024-02-23T12:30:25;19.01;34.48
77467;DHT22;66564;42.482;25.548;2024-02-23T12:32:52;18.77;35.10
77467;DHT22;66564;42.482;25.548;2024-02-23T12:35:27;18.63;35.41
77467;DHT22;66564;42.482;25.548;2024-02-23T12:37:53;18.69;35.99
77467;DHT22;66564;42.482;25.548;2024-02-23T12:40:18;18.63;35.37
77467;DHT22;66564;42.482;25.548;2024-02-23T12:42:44;18.65;35.62
77467;DHT22;66564;42.482;25.548;2024-02-23T12:45:11;18.72;35.91
77467;DHT22;66564;42.482;25.548;2024-02-23T12:47:36;18.89;36.05
77467;DHT22;66564;42.482;25.548;2024-02-23T12:50:02;19.01;34.55
77467;DHT22;66564;42.482;25.548;2024-02-23T12:52:27;19.12;34.30
77467;DHT22;66564;42.482;25.548;2024-02-23T12:54:52;19.07;33.75
77467;DHT22;66564;42.482;25.548;2024-02-23T12:57:18;19.09;33.98
77467;DHT22;66564;42.482;25.548;2024-02-23T12:59:43;19.07;33.54
77467;DHT22;66564;42.482;25.548;2024-02-23T13:02:10;19.11;33.56
77467;DHT22;66564;42.482;25.548;2024-02-23T13:04:37;19.08;33.25
77467;DHT22;66564;42.482;25.548;2024-02-23T13:07:02;19.04;33.38
77467;DHT22;66564;42.482;25.548;2024-02-23T13:09:27;18.97;34.31
77467;DHT22;66564;42.482;25.548;2024-02-23T13:11:53;18.83;35.18
77467;DHT22;66564;42.482;25.548;2024-02-23T13:14:19;18.92;33.92
77467;DHT22;66564;42.482;25.548;2024-02-23T13:16:44;19.04;33.95
77467;DHT22;66564;42.482;25.548;2024-02-23T13:19:09;19.07;33.50
77467;DHT22;66564;42.482;25.548;2024-02-23T13:21:35;18.83;33.79
77467;DHT22;66564;42.482;25.548;2024-02-23T13:24:00;18.78;34.04
77467;DHT22;66564;42.482;25.548;2024-02-23T13:26:26;18.53;35.22
77467;DHT22;66564;42.482;25.548;2024-02-23T13:28:51;18.55;36.47
77467;DHT22;66564;42.482;25.548;2024-02-23T13:31:17;18.60;36.31
77467;DHT22;66564;42.482;25.548;2024-02-23T13:33:42;18.72;35.27
77467;DHT22;66564;42.482;25.548;2024-02-23T13:36:09;18.91;35.55
77467;DHT22;66564;42.482;25.548;2024-02-23T13:38:34;19.04;33.64
77467;DHT22;66564;42.482;25.548;2024-02-23T13:41:04;18.97;34.37
77467;DHT22;66564;42.482;25.548;2024-02-23T13:43:30;18.91;34.26
77467;DHT22;66564;42.482;25.548;2024-02-23T13:45:55;18.78;34.56
77467;DHT22;66564;42.482;25.548;2024-02-23T13:48:21;18.78;34.40
77467;DHT22;66564;42.482;25.548;2024-02-23T13:50:48;18.84;34.33
77467;DHT22;66564;42.482;25.548;2024-02-23T13:53:14;18.85;34.22
77467;DHT22;66564;42.482;25.548;2024-02-23T13:55:40;18.84;34.54
77467;DHT22;66564;42.482;25.548;2024-02-23T13:58:09;18.63;34.57
77467;DHT22;66564;42.482;25.548;2024-02-23T14:00:35;18.63;35.35
77467;DHT22;66564;42.482;25.548;2024-02-23T14:03:00;18.64;35.75
77467;DHT22;66564;42.482;25.548;2024-02-23T14:05:26;18.58;36.41
77467;DHT22;66564;42.482;25.548;2024-02-23T14:07:51;18.68;37.01
77467;DHT22;66564;42.482;25.548;2024-02-23T14:10:22;18.69;36.00
77467;DHT22;66564;42.482;25.548;2024-02-23T14:12:48;18.65;37.05
77467;DHT22;66564;42.482;25.548;2024-02-23T14:15:15;18.54;37.57
77467;DHT22;66564;42.482;25.548;2024-02-23T14:17:41;18.55;37.68
77467;DHT22;66564;42.482;25.548;2024-02-23T14:20:07;18.41;37.75
77467;DHT22;66564;42.482;25.548;2024-02-23T14:22:32;18.27;37.59
77467;DHT22;66564;42.482;25.548;2024-02-23T14:24:58;18.23;37.95
77467;DHT22;66564;42.482;25.548;2024-02-23T14:27:24;18.23;37.74
77467;DHT22;66564;42.482;25.548;2024-02-23T14:29:49;18.14;37.55
77467;DHT22;66564;42.482;25.548;2024-02-23T14:32:16;18.04;37.34
77467;DHT22;66564;42.482;25.548;2024-02-23T14:34:42;17.86;38.06
77467;DHT22;66564;42.482;25.548;2024-02-23T14:37:08;17.78;38.13
77467;DHT22;66564;42.482;25.548;2024-02-23T14:39:33;17.69;38.08
77467;DHT22;66564;42.482;25.548;2024-02-23T14:42:00;17.61;38.40
77467;DHT22;66564;42.482;25.548;2024-02-23T14:44:25;17.53;38.60
77467;DHT22;66564;42.482;25.548;2024-02-23T14:46:51;17.49;38.86
77467;DHT22;66564;42.482;25.548;2024-02-23T14:49:17;17.50;37.68
77467;DHT22;66564;42.482;25.548;2024-02-23T14:51:42;17.40;38.71
77467;DHT22;66564;42.482;25.548;2024-02-23T14:54:08;17.34;39.05
77467;DHT22;66564;42.482;25.548;2024-02-23T14:56:34;17.28;39.57
77467;DHT22;66564;42.482;25.548;2024-02-23T14:58:59;17.24;40.23
77467;DHT22;66564;42.482;25.548;2024-02-23T15:01:27;17.28;40.87
77467;DHT22;66564;42.482;25.548;2024-02-23T15:03:52;17.25;41.63
77467;DHT22;66564;42.482;25.548;2024-02-23T15:06:18;17.31;41.96
77467;DHT22;66564;42.482;25.548;2024-02-23T15:08:44;17.25;41.95
77467;DHT22;66564;42.482;25.548;2024-02-23T15:11:11;17.16;42.43
77467;DHT22;66564;42.482;25.548;2024-02-23T15:13:36;17.16;42.84
77467;DHT22;66564;42.482;25.548;2024-02-23T15:16:02;17.10;43.41
77467;DHT22;66564;42.482;25.548;2024-02-23T15:18:28;17.01;43.70